Latest Weather Observations for Broome

IDW60801

Issued at 10:02 pm WST Saturday 5 September 2015 (issued every 30 minutes, with the page automatically refreshed every 10 minutes)

About weather observations | Map of weather stations | Latest weather observations for WA | Other Formats
Station Details ID: 003003 Name: BROOME AIRPORT Lat: -17.95 Lon: 122.24 Height: 7.42 m
Data from the previous 72 hours. | See also: Recent months at Broome
Date/Time
WST
Temp
°C
App
Temp
°C
Dew
Point
Rel
Hum
%
Delta-T
°C
Wind Press
QNH
hPa
Press
MSL
hPa
Rain
since 9 am
mm
Dir
 
Spd
km/h
Gust
km/h
Spd
kts
Gust
kts
05/10:00pm 20.6 23.7 19.5 93 0.7 E 2 6 1 3 1016.5 - 0.0
05/09:30pm 21.9 25.8 20.3 91 1.0 CALM 0 0 0 0 1016.5 - 0.0
05/09:00pm 23.6 26.5 21.0 85 1.7 WSW 7 9 4 5 1016.5 1016.4 0.0
05/08:30pm 23.8 26.3 21.1 85 1.8 WSW 9 11 5 6 1016.5 - 0.0
05/08:00pm 24.2 26.6 21.5 85 1.8 WSW 11 15 6 8 1016.4 - 0.0
05/07:30pm 24.3 25.5 21.4 84 1.9 W 17 22 9 12 1016.1 - 0.0
05/07:00pm 24.4 25.1 21.2 82 2.1 W 19 24 10 13 1015.7 - 0.0
05/06:30pm 24.4 25.0 21.0 81 2.2 WSW 19 24 10 13 1015.2 - 0.0
05/06:00pm 24.7 25.3 21.0 80 2.4 W 19 26 10 14 1015.2 1015.1 0.0
05/05:30pm 25.1 25.0 20.7 76 2.9 WSW 22 30 12 16 1014.9 - 0.0
05/05:00pm 25.9 25.7 20.6 72 3.5 W 22 33 12 18 1014.7 - 0.0
05/04:30pm 26.2 25.9 20.4 70 3.8 W 22 32 12 17 1014.4 - 0.0
05/04:00pm 26.4 25.8 20.4 69 3.9 WSW 24 32 13 17 1014.1 - 0.0
05/03:30pm 27.1 26.2 19.9 64 4.7 W 24 33 13 18 1013.9 - 0.0
05/03:00pm 27.4 26.5 19.9 63 4.9 W 24 32 13 17 1014.0 1013.9 0.0
05/02:30pm 26.8 25.7 19.5 64 4.7 W 24 33 13 18 1014.2 - 0.0
05/02:00pm 27.9 26.9 19.6 60 5.4 W 24 32 13 17 1014.4 - 0.0
05/01:30pm 27.5 27.2 19.6 62 5.1 W 20 28 11 15 1014.7 - 0.0
05/01:00pm 27.9 27.4 18.7 57 5.9 WSW 19 24 10 13 1015.0 - 0.0
05/12:30pm 27.9 27.0 18.2 55 6.2 W 20 28 11 15 1015.5 - 0.0
05/12:00pm 27.2 26.6 18.9 60 5.3 W 20 28 11 15 1015.9 1015.8 0.0
05/11:30am 27.3 27.4 19.2 61 5.2 W 17 24 9 13 1016.5 - 0.0
05/11:00am 26.7 27.5 19.1 63 4.9 WSW 13 19 7 10 1016.9 - 0.0
05/10:30am 26.6 27.6 18.6 61 5.1 SSW 11 15 6 8 1017.5 - 0.0
05/10:00am 25.7 26.0 17.9 62 4.9 SSW 13 20 7 11 1018.0 - 0.0
05/09:30am 24.9 26.1 19.9 74 3.2 S 13 19 7 10 1018.2 - 0.0
05/09:00am 24.6 25.8 19.8 74 3.1 S 13 20 7 11 1018.1 1018.0 0.0
05/08:30am 23.7 24.0 19.6 78 2.6 S 17 24 9 13 1017.9 - 0.0
05/08:00am 23.2 23.8 19.4 79 2.4 S 15 24 8 13 1017.9 - 0.0
05/07:30am 22.7 24.0 19.4 81 2.1 SSE 11 15 6 8 1017.8 - 0.0
05/07:00am 20.5 23.8 19.2 92 0.8 CALM 0 2 0 1 1017.5 - 0.0
05/06:30am 19.5 22.3 18.9 96 0.4 NE 2 6 1 3 1017.1 - 0.0
05/06:00am 19.2 21.5 18.6 96 0.4 E 4 7 2 4 1016.7 1016.6 0.0
05/05:30am 20.6 23.0 19.7 95 0.6 SE 6 9 3 5 1016.5 - 0.0
05/05:00am 21.5 23.8 19.9 91 1.0 SSE 7 9 4 5 1016.1 - 0.0
05/04:52am 21.5 23.8 19.8 90 1.1 SSE 7 11 4 6 1016.1 - 0.0
05/04:30am 21.9 23.1 19.9 88 1.3 S 13 19 7 10 1016.0 - 0.0
05/04:00am 22.1 22.6 20.1 88 1.3 SSW 17 24 9 13 1015.7 - 0.0
05/03:30am 22.2 22.9 20.5 90 1.1 SSW 17 22 9 12 1015.5 - 0.0
05/03:01am 22.3 23.5 20.6 90 1.1 SSW 15 22 8 12 1015.3 - 0.0
05/03:00am 22.3 23.5 20.6 90 1.1 SSW 15 22 8 12 1015.3 1015.2 0.0
05/02:30am 22.3 23.2 20.8 91 1.0 SSW 17 26 9 14 1015.2 - 0.0
05/02:10am 22.6 23.0 20.9 90 1.1 SSW 20 30 11 16 1015.0 - 0.0
05/02:00am 22.5 23.1 21.1 92 0.9 SSW 19 28 10 15 1015.2 - 0.0
05/01:34am 22.6 23.1 21.2 92 0.9 SSW 20 28 11 15 1015.3 - 0.0
05/01:30am 22.5 23.1 21.3 93 0.8 SSW 20 28 11 15 1015.3 - 0.0
05/01:00am 22.7 24.7 21.6 93 0.7 S 13 24 7 13 1015.5 - 0.0
05/12:30am 22.4 25.2 21.5 95 0.6 SSW 9 13 5 7 1015.8 - 0.0
05/12:00am 18.6 21.1 17.3 92 0.8 CALM 0 0 0 0 1016.4 1016.3 0.0
 
Date/Time
WST
Temp
°C
App
Temp
°C
Dew
Point
Rel
Hum
%
Delta-T
°C
Wind Press
QNH
hPa
Press
MSL
hPa
Rain
since 9 am
mm
Dir
 
Spd
km/h
Gust
km/h
Spd
kts
Gust
kts
04/11:30pm 18.9 21.6 17.8 93 0.7 CALM 0 0 0 0 1016.7 - 0.0
04/11:00pm 19.0 21.8 18.0 94 0.6 CALM 0 0 0 0 1016.9 - 0.0
04/10:30pm 19.8 21.6 18.7 93 0.7 N 7 7 4 4 1016.9 - 0.0
04/10:00pm 20.1 23.0 19.0 93 0.7 NNE 2 6 1 3 1017.0 - 0.0
04/09:30pm 20.1 22.1 18.7 92 0.9 N 6 9 3 5 1017.0 - 0.0
04/09:00pm 21.9 25.4 19.5 86 1.5 CALM 0 0 0 0 1016.8 1016.7 0.0
04/08:30pm 23.9 26.5 20.4 81 2.3 WSW 7 11 4 6 1016.6 - 0.0
04/08:00pm 24.3 26.5 20.5 79 2.5 WSW 9 13 5 7 1016.5 - 0.0
04/07:30pm 24.4 26.4 20.7 80 2.4 WSW 11 17 6 9 1016.2 - 0.0
04/07:00pm 24.6 25.8 20.6 78 2.6 WSW 15 20 8 11 1015.9 - 0.0
04/06:30pm 24.9 25.9 20.3 75 3.0 SW 15 20 8 11 1015.7 - 0.0
04/06:00pm 25.5 25.3 19.4 69 3.9 WSW 19 28 10 15 1015.3 1015.2 0.0
04/05:30pm 26.1 26.1 19.8 68 4.1 WSW 19 26 10 14 1015.0 - 0.0
04/05:00pm 26.9 25.8 19.5 64 4.8 WSW 24 32 13 17 1014.7 - 0.0
04/04:30pm 27.5 26.8 19.6 62 5.1 WSW 22 30 12 16 1014.7 - 0.0
04/04:00pm 28.0 27.3 19.4 59 5.6 WSW 22 30 12 16 1014.7 - 0.0
04/03:30pm 28.8 28.1 18.3 53 6.7 WSW 19 26 10 14 1014.6 - 0.0
04/03:00pm 29.1 27.9 18.3 52 6.9 WSW 22 28 12 15 1014.6 1014.5 0.0
04/02:30pm 28.9 28.1 18.4 53 6.7 W 20 26 11 14 1014.7 - 0.0
04/02:00pm 29.0 27.6 16.9 48 7.6 WSW 20 26 11 14 1014.8 - 0.0
04/01:30pm 30.1 29.0 17.3 46 8.1 W 19 24 10 13 1015.0 - 0.0
04/01:00pm 29.7 28.9 18.1 49 7.4 W 19 24 10 13 1015.4 - 0.0
04/12:30pm 31.9 30.9 15.6 37 10.1 SW 15 24 8 13 1015.7 - 0.0
04/12:00pm 32.2 29.7 6.7 20 13.8 S 9 13 5 7 1016.2 1016.1 0.0
04/11:30am 30.4 28.7 11.1 30 11.1 S 11 15 6 8 1016.7 - 0.0
04/11:00am 28.6 27.3 12.5 37 9.4 SSE 11 17 6 9 1017.2 - 0.0
04/10:30am 26.6 26.6 15.2 49 6.9 SSE 9 15 5 8 1017.6 - 0.0
04/10:00am 25.4 25.5 16.4 57 5.5 SSE 11 13 6 7 1018.0 - 0.0
04/09:30am 23.3 23.7 17.3 69 3.7 S 11 13 6 7 1018.3 - 0.0
04/09:00am 22.8 23.7 17.5 72 3.3 SSE 9 13 5 7 1018.5 1018.4 0.0
04/08:30am 21.7 22.4 17.1 75 2.8 SE 9 13 5 7 1018.6 - 0.0
04/08:00am 20.9 20.2 17.3 80 2.2 SE 17 22 9 12 1018.4 - 0.0
04/07:30am 20.3 20.4 17.4 83 1.8 SE 13 19 7 10 1018.2 - 0.0
04/07:00am 20.2 20.6 18.1 88 1.3 E 13 17 7 9 1018.0 - 0.0
04/06:30am 20.7 20.3 18.8 89 1.2 SE 19 26 10 14 1017.4 - 0.0
04/06:00am 20.6 21.0 19.0 90 1.0 SSE 15 22 8 12 1016.8 1016.7 0.0
04/05:30am 20.7 20.8 19.1 90 1.0 SSE 17 24 9 13 1016.6 - 0.0
04/05:00am 21.0 22.1 19.6 92 0.9 SE 13 19 7 10 1016.1 - 0.0
04/04:30am 21.0 23.0 19.9 93 0.7 S 9 13 5 7 1015.9 - 0.0
04/04:00am 21.5 23.3 20.3 93 0.8 SSE 11 19 6 10 1015.8 - 0.0
04/03:30am 21.8 24.1 20.6 93 0.8 SSE 9 13 5 7 1015.6 - 0.0
04/03:00am 21.1 22.7 19.2 89 1.2 SSW 9 11 5 6 1015.8 1015.7 0.0
04/02:30am 20.5 22.4 18.9 90 1.0 SSW 7 7 4 4 1016.1 - 0.0
04/02:00am 21.0 22.5 18.9 88 1.3 SW 9 13 5 7 1016.2 - 0.0
04/01:30am 19.8 21.7 18.5 92 0.8 SW 6 9 3 5 1016.5 - 0.0
04/01:00am 17.7 19.9 16.5 93 0.7 CALM 0 0 0 0 1016.8 - 0.0
04/12:30am 17.7 19.4 16.2 91 0.9 SW 2 6 1 3 1017.1 - 0.0
04/12:00am 20.6 22.3 18.5 88 1.3 SW 7 9 4 5 1017.5 1017.4 0.0
 
Date/Time
WST
Temp
°C
App
Temp
°C
Dew
Point
Rel
Hum
%
Delta-T
°C
Wind Press
QNH
hPa
Press
MSL
hPa
Rain
since 9 am
mm
Dir
 
Spd
km/h
Gust
km/h
Spd
kts
Gust
kts
03/11:30pm 19.0 21.5 17.2 89 1.1 CALM 0 0 0 0 1017.8 - 0.0
03/11:00pm 21.1 22.9 18.7 86 1.5 SW 7 9 4 5 1017.9 - 0.0
03/10:30pm 20.6 23.6 18.5 88 1.3 CALM 0 0 0 0 1018.1 - 0.0
03/10:00pm 22.1 24.0 18.9 82 2.0 WSW 7 9 4 5 1018.1 - 0.0
03/09:30pm 22.5 24.0 19.0 80 2.2 SW 9 11 5 6 1018.0 - 0.0
03/09:00pm 22.8 24.0 19.0 79 2.4 SW 11 15 6 8 1018.0 1017.9 0.0
03/08:30pm 23.2 24.3 18.9 77 2.7 SW 11 15 6 8 1017.9 - 0.0
03/08:00pm 23.4 24.7 19.2 77 2.7 SW 11 13 6 7 1017.7 - 0.0
03/07:30pm 23.8 24.4 18.7 73 3.2 WSW 13 19 7 10 1017.4 - 0.0
03/07:00pm 24.0 24.2 18.6 72 3.4 WSW 15 24 8 13 1017.0 - 0.0
03/06:30pm 24.2 24.5 18.7 71 3.5 WSW 15 20 8 11 1016.6 - 0.0
03/06:00pm 24.4 24.8 18.9 71 3.5 W 15 22 8 12 1016.3 1016.2 0.0
03/05:30pm 25.1 24.5 18.5 67 4.2 W 19 24 10 13 1015.9 - 0.0
03/05:00pm 25.7 24.5 18.4 64 4.6 W 22 32 12 17 1015.6 - 0.0
03/04:30pm 26.4 25.4 18.0 60 5.3 W 20 28 11 15 1015.4 - 0.0
03/04:00pm 27.1 25.6 18.5 59 5.5 W 24 32 13 17 1015.1 - 0.0
03/03:30pm 27.5 25.7 16.9 52 6.6 W 22 30 12 16 1014.9 - 0.0
03/03:00pm 27.6 25.9 18.2 56 6.0 W 24 33 13 18 1014.7 1014.6 0.0
03/02:30pm 28.4 26.1 17.5 51 6.9 W 26 33 14 18 1014.7 - 0.0
03/02:00pm 28.2 26.2 17.4 52 6.8 W 24 28 13 15 1014.8 - 0.0
03/01:30pm 28.4 27.2 17.6 52 6.8 W 20 26 11 14 1015.0 - 0.0
03/01:00pm 28.5 27.5 17.6 51 6.9 W 19 24 10 13 1015.3 - 0.0
03/12:30pm 28.4 27.6 18.0 53 6.6 WSW 19 22 10 12 1015.6 - 0.0
03/12:00pm 28.6 29.0 17.3 50 7.1 WSW 11 20 6 11 1015.9 1015.8 0.0
03/11:30am 27.8 28.0 15.7 47 7.4 S 9 15 5 8 1016.4 - 0.0
03/11:00am 26.9 26.9 16.2 52 6.6 SSE 11 17 6 9 1017.0 - 0.0
03/10:30am 26.1 25.9 16.7 56 5.8 S 13 19 7 10 1017.4 - 0.0
03/10:00am 24.7 25.3 18.7 69 3.8 SSE 13 19 7 10 1017.8 - 0.0
03/09:30am 24.6 25.3 18.8 70 3.7 SSE 13 17 7 9 1018.0 - 0.0
03/09:00am 23.6 24.8 19.0 75 2.9 SSE 11 17 6 9 1018.1 1018.0 0.0
03/08:30am 23.5 24.2 18.9 75 2.9 SE 13 15 7 8 1018.1 - 0.0
03/08:00am 22.1 23.3 18.3 79 2.4 ESE 9 13 5 7 1018.0 - 0.0
03/07:30am 20.5 22.9 17.9 85 1.6 NE 2 7 1 4 1017.8 - 0.0
03/07:00am 18.5 19.8 17.0 91 0.9 ENE 6 7 3 4 1017.8 - 0.0
03/06:30am 16.8 17.7 16.1 96 0.4 NE 6 7 3 4 1017.6 - 0.0
03/06:00am 15.7 15.9 14.8 94 0.5 NE 7 9 4 5 1017.3 1017.2 0.0
03/05:30am 16.5 16.7 15.8 96 0.4 NNE 9 9 5 5 1017.0 - 0.0
03/05:00am 17.5 18.4 16.7 95 0.5 NE 7 9 4 5 1016.6 - 0.0
03/04:30am 16.8 18.8 15.9 94 0.5 CALM 0 0 0 0 1016.2 - 0.0
03/04:00am 16.7 18.5 15.5 93 0.7 CALM 0 0 0 0 1016.0 - 0.0
03/03:30am 16.7 18.5 15.5 93 0.7 CALM 0 0 0 0 1015.7 - 0.0
03/03:00am 17.3 19.4 16.3 94 0.6 CALM 0 0 0 0 1015.7 1015.6 0.0
03/02:30am 17.3 19.2 15.8 91 0.9 CALM 0 0 0 0 1015.8 - 0.0
03/02:00am 17.1 18.9 15.6 91 0.9 CALM 0 0 0 0 1015.9 - 0.0
03/01:30am 17.1 18.9 15.6 91 0.9 CALM 0 0 0 0 1016.1 - 0.0
03/01:00am 16.9 18.6 15.2 90 1.0 CALM 0 0 0 0 1016.0 - 0.0
03/12:30am 17.1 18.9 15.4 90 1.0 CALM 0 0 0 0 1016.3 - 0.0
03/12:00am 17.1 18.9 15.4 90 1.0 CALM 0 0 0 0 1016.6 1016.5 0.0
 
Date/Time
WST
Temp
°C
App
Temp
°C
Dew
Point
Rel
Hum
%
Delta-T
°C
Wind Press
QNH
hPa
Press
MSL
hPa
Rain
since 9 am
mm
Dir
 
Spd
km/h
Gust
km/h
Spd
kts
Gust
kts
02/11:30pm 17.3 19.2 15.8 91 0.9 CALM 0 6 0 3 1016.8 - 0.0
02/11:00pm 17.5 19.3 15.6 89 1.1 CALM 0 0 0 0 1017.0 - 0.0
02/10:30pm 17.7 18.4 16.0 90 1.0 NNE 7 7 4 4 1017.1 - 0.0

Other Formats:

Comma delimited format used in spreadsheet applications
http://www.bom.gov.au/fwo/IDW60801/IDW60801.94203.axf

JavaScript Object Notation format (JSON) in row-major order
http://www.bom.gov.au/fwo/IDW60801/IDW60801.94203.json